Terminal Aerodrome Forecast
Issued by NWS

Home | Current Version | Previous Version | Text Only | Print | Product List | Glossary On
Versions: 1 2 3 4 5 6 7 8 9 10 11 12 13 14 15 16 17 18 19 20 21 22 23 24 25 26 27 28 29 30 31 32 33 34 35 36 37 38 39 40 41 42 43 44 45
000
FTUS45 KBOU 040212 AAA
TAFAPA
TAF AMD
KAPA 040212Z 0402/0424 15006KT P6SM SCT060 SCT140
     FM040600 19006KT P6SM FEW120 SCT200
     FM041500 24006KT P6SM FEW090 FEW200
     FM042000 01006KT P6SM SCT080 SCT120
     FM042200 01006KT P6SM VCTS SCT080CB BKN120=

USA.gov is the U.S. government's official web portal to all federal, state and local government web resources and services.